createdAt,value
2022-11-25T00:01:07.192Z,17.7
2022-11-25T00:03:04.938Z,35.1
2022-11-25T00:05:05.162Z,142.1
2022-11-25T00:07:04.331Z,37.3
2022-11-25T00:09:06.525Z,21.9
2022-11-25T00:11:05.216Z,16.3
2022-11-25T00:13:03.349Z,14.9
2022-11-25T00:15:03.400Z,18.5
2022-11-25T00:17:02.895Z,17.9
2022-11-25T00:19:02.870Z,18.9
2022-11-25T00:21:05.290Z,15.4
2022-11-25T00:25:02.424Z,14.4
2022-11-25T00:27:04.033Z,17.6
2022-11-25T00:29:04.087Z,19.4
2022-11-25T00:31:05.251Z,17.5
2022-11-25T00:33:00.775Z,15.4
2022-11-25T00:35:00.096Z,15.2
2022-11-25T00:37:00.105Z,17.5
2022-11-25T00:39:02.831Z,14.2
2022-11-25T00:41:08.985Z,16.3
2022-11-25T00:43:08.748Z,20.3
2022-11-25T00:44:58.635Z,15.2
2022-11-25T00:46:58.611Z,14.8
2022-11-25T00:48:58.129Z,14.8
2022-11-25T00:50:58.137Z,14.8
2022-11-25T00:52:58.659Z,15.7
2022-11-25T00:54:57.359Z,15.9
2022-11-25T00:56:58.013Z,17.5
2022-11-25T00:58:56.615Z,14.3
2022-11-25T01:01:00.555Z,15.2
2022-11-25T01:02:55.888Z,20.0
2022-11-25T01:04:55.804Z,16.0
2022-11-25T01:06:55.979Z,16.7
2022-11-25T01:08:55.121Z,14.9
2022-11-25T01:10:58.826Z,16.8
2022-11-25T01:12:54.391Z,17.8
2022-11-25T01:14:54.155Z,18.2
2022-11-25T01:16:54.451Z,18.2
2022-11-25T01:18:53.693Z,17.5
2022-11-25T01:20:53.666Z,15.5
2022-11-25T01:22:53.443Z,13.5
2022-11-25T01:24:52.656Z,18.1
2022-11-25T01:28:56.073Z,13.9
2022-11-25T01:30:58.601Z,17.4
2022-11-25T01:32:51.440Z,9.9
2022-11-25T01:36:50.949Z,6.0
2022-11-25T01:38:52.844Z,5.4
2022-11-25T01:40:50.432Z,6.1
2022-11-25T01:42:49.922Z,7.2
2022-11-25T01:45:09.438Z,5.0
2022-11-25T01:46:56.011Z,4.9
2022-11-25T01:48:55.097Z,7.0
2022-11-25T01:50:49.449Z,5.6
2022-11-25T01:52:51.273Z,5.7
2022-11-25T01:54:53.463Z,7.0
2022-11-25T01:56:53.619Z,6.4
2022-11-25T01:58:48.851Z,4.6
2022-11-25T02:02:52.258Z,5.5
2022-11-25T02:04:47.839Z,3.9
2022-11-25T02:08:49.995Z,6.6
2022-11-25T02:10:45.824Z,6.5
2022-11-25T02:12:45.961Z,5.4
2022-11-25T02:14:46.099Z,3.9
2022-11-25T02:16:45.171Z,4.4
2022-11-25T02:18:44.946Z,4.1
2022-11-25T02:22:51.565Z,4.4
2022-11-25T02:26:43.893Z,3.4
2022-11-25T02:28:43.838Z,3.9
2022-11-25T02:30:43.962Z,3.6
2022-11-25T02:32:43.312Z,3.4
2022-11-25T02:34:47.140Z,4.9
2022-11-25T02:36:42.320Z,2.8
2022-11-25T02:40:46.921Z,4.5
2022-11-25T02:42:40.827Z,3.2
2022-11-25T02:44:40.684Z,4.3
2022-11-25T02:46:40.677Z,2.8
2022-11-25T02:49:06.904Z,3.3
2022-11-25T02:50:39.629Z,2.5
2022-11-25T02:52:39.308Z,4.2
2022-11-25T02:54:38.901Z,2.7
2022-11-25T02:56:39.451Z,2.5
2022-11-25T03:00:38.571Z,3.5
2022-11-25T03:04:38.121Z,2.8
2022-11-25T03:06:37.243Z,4.5
2022-11-25T03:08:37.576Z,3.2
2022-11-25T03:12:36.166Z,4.1
2022-11-25T03:16:36.142Z,3.9
2022-11-25T03:18:36.057Z,5.4
2022-11-25T03:20:36.085Z,5.9
2022-11-25T03:22:35.029Z,3.7
2022-11-25T03:24:34.470Z,5.3
2022-11-25T03:26:33.750Z,4.0
2022-11-25T03:28:33.478Z,8.1
2022-11-25T03:36:32.216Z,5.3
2022-11-25T03:38:31.688Z,4.2
2022-11-25T03:42:32.004Z,7.0
2022-11-25T03:44:31.169Z,3.1
2022-11-25T03:46:30.626Z,5.8
2022-11-25T03:48:30.061Z,8.7
2022-11-25T03:54:29.328Z,7.1
2022-11-25T03:56:28.555Z,6.2
2022-11-25T04:00:28.423Z,6.7
2022-11-25T04:02:27.675Z,6.7
2022-11-25T04:06:27.003Z,8.1
2022-11-25T04:08:26.875Z,9.0
2022-11-25T04:10:26.827Z,7.7
2022-11-25T04:12:36.727Z,11.6
2022-11-25T04:14:25.444Z,9.0
2022-11-25T04:16:25.919Z,10.8
2022-11-25T04:18:24.873Z,10.4
2022-11-25T04:20:24.521Z,13.0
2022-11-25T04:22:24.049Z,13.2
2022-11-25T04:24:23.754Z,13.0
2022-11-25T04:26:23.535Z,10.3
2022-11-25T04:28:22.959Z,11.6
2022-11-25T04:32:22.599Z,8.1
2022-11-25T04:34:22.542Z,11.2
2022-11-25T04:36:22.004Z,13.7
2022-11-25T04:38:21.303Z,11.3
2022-11-25T04:40:20.953Z,14.4
2022-11-25T04:42:30.426Z,10.8
2022-11-25T04:44:20.211Z,11.8
2022-11-25T04:46:23.700Z,13.8
2022-11-25T04:50:22.367Z,11.5
2022-11-25T04:54:18.283Z,10.1
2022-11-25T04:56:19.338Z,9.4
2022-11-25T04:58:27.612Z,10.4
2022-11-25T05:00:18.270Z,10.4
2022-11-25T05:02:19.359Z,10.1
2022-11-25T05:04:16.457Z,12.4
2022-11-25T05:06:16.367Z,15.9
2022-11-25T05:08:15.909Z,9.8
2022-11-25T05:10:15.559Z,10.1
2022-11-25T05:12:18.324Z,11.1
2022-11-25T05:14:14.717Z,13.7
2022-11-25T05:18:13.971Z,12.2
2022-11-25T05:20:13.746Z,11.9
2022-11-25T05:22:15.303Z,13.2
2022-11-25T05:24:13.459Z,13.0
2022-11-25T05:26:13.835Z,10.8
2022-11-25T05:28:12.135Z,12.2
2022-11-25T05:30:12.839Z,13.8
2022-11-25T05:34:11.314Z,10.5
2022-11-25T05:36:10.738Z,15.4
2022-11-25T05:38:10.428Z,12.7
2022-11-25T05:40:10.495Z,12.1
2022-11-25T05:42:09.661Z,12.0
2022-11-25T05:44:09.585Z,11.4
2022-11-25T05:46:09.855Z,10.4
2022-11-25T05:48:09.303Z,12.4
2022-11-25T05:50:08.957Z,15.5
2022-11-25T05:52:07.827Z,8.6
2022-11-25T05:54:07.461Z,10.5
2022-11-25T05:58:06.796Z,10.3
2022-11-25T06:00:07.201Z,7.6
2022-11-25T06:02:06.160Z,12.2
2022-11-25T06:04:05.853Z,11.1
2022-11-25T06:06:06.626Z,11.0
2022-11-25T06:08:05.121Z,10.5
2022-11-25T06:10:05.710Z,9.6
2022-11-25T06:12:04.443Z,13.1
2022-11-25T06:14:03.880Z,12.9
2022-11-25T06:16:08.164Z,15.2
2022-11-25T06:18:02.918Z,11.3
2022-11-25T06:20:03.414Z,14.3
2022-11-25T06:22:02.479Z,15.9
2022-11-25T06:26:05.271Z,17.5
2022-11-25T06:28:12.956Z,15.4
2022-11-25T06:30:00.760Z,14.5
2022-11-25T06:32:00.827Z,14.9
2022-11-25T06:34:00.854Z,15.1
2022-11-25T06:36:02.628Z,13.9
2022-11-25T06:37:59.479Z,15.8
2022-11-25T06:39:58.671Z,12.1
2022-11-25T06:41:58.263Z,11.0
2022-11-25T06:43:57.882Z,14.7
2022-11-25T06:46:04.249Z,13.8
2022-11-25T06:47:57.080Z,12.9
2022-11-25T06:49:56.845Z,9.5
2022-11-25T06:51:56.522Z,12.6
2022-11-25T06:53:56.144Z,12.9
2022-11-25T06:56:07.514Z,11.0
2022-11-25T06:58:08.370Z,10.0
2022-11-25T06:59:55.055Z,10.1
2022-11-25T07:01:54.508Z,12.5
2022-11-25T07:03:57.405Z,11.1
2022-11-25T07:07:53.528Z,10.3
2022-11-25T07:09:52.947Z,17.5
2022-11-25T07:13:53.856Z,13.7
2022-11-25T07:15:51.920Z,15.8
2022-11-25T07:17:51.653Z,13.8
2022-11-25T07:21:51.341Z,16.2
2022-11-25T07:23:51.598Z,19.9
2022-11-25T07:25:49.844Z,20.5
2022-11-25T07:27:49.506Z,21.6
2022-11-25T07:30:18.722Z,19.7
2022-11-25T07:31:48.686Z,18.4
2022-11-25T07:33:51.833Z,19.6
2022-11-25T07:35:47.845Z,18.4
2022-11-25T07:37:47.560Z,17.7
2022-11-25T07:39:47.116Z,15.0
2022-11-25T07:43:49.690Z,18.8
2022-11-25T07:45:47.272Z,19.5
2022-11-25T07:47:45.539Z,18.9
2022-11-25T07:49:45.271Z,18.4
2022-11-25T07:51:49.254Z,16.8
2022-11-25T07:53:44.747Z,17.4
2022-11-25T07:55:44.084Z,18.3
2022-11-25T07:57:43.722Z,17.9
2022-11-25T07:59:43.556Z,18.7
2022-11-25T08:01:43.786Z,18.3
2022-11-25T08:03:44.026Z,19.6
2022-11-25T08:05:42.405Z,18.6
2022-11-25T08:07:42.390Z,19.2
2022-11-25T08:09:41.706Z,18.9
2022-11-25T08:11:41.832Z,17.9
2022-11-25T08:13:41.355Z,13.9
2022-11-25T08:15:40.280Z,18.1
2022-11-25T08:17:39.858Z,19.1
2022-11-25T08:19:39.872Z,20.6
2022-11-25T08:21:39.463Z,19.1
2022-11-25T08:25:38.920Z,15.9
2022-11-25T08:27:38.058Z,19.5
2022-11-25T08:29:38.226Z,18.7
2022-11-25T08:31:38.061Z,23.5
2022-11-25T08:33:37.470Z,20.7
2022-11-25T08:35:37.374Z,17.7
2022-11-25T08:37:36.189Z,17.6
2022-11-25T08:39:52.002Z,18.8
2022-11-25T08:41:37.084Z,22.4
2022-11-25T08:43:34.971Z,15.7
2022-11-25T08:45:34.668Z,20.3
2022-11-25T08:47:34.373Z,19.4
2022-11-25T08:49:40.435Z,18.4
2022-11-25T08:51:35.043Z,19.2
2022-11-25T08:53:33.399Z,16.6
2022-11-25T08:55:33.234Z,22.1
2022-11-25T08:57:32.513Z,16.6
2022-11-25T09:03:32.909Z,15.9
2022-11-25T09:05:35.009Z,18.9
2022-11-25T09:07:30.947Z,21.3
2022-11-25T09:09:30.406Z,19.3
2022-11-25T09:11:29.777Z,26.7
2022-11-25T09:15:29.261Z,16.8
2022-11-25T09:17:28.912Z,20.9
2022-11-25T09:19:29.008Z,14.2
2022-11-25T09:21:28.125Z,17.8
2022-11-25T09:23:27.551Z,17.0
2022-11-25T09:25:27.543Z,18.7
2022-11-25T09:27:26.829Z,13.7
2022-11-25T09:29:26.893Z,17.0
2022-11-25T09:31:26.230Z,19.3
2022-11-25T09:33:25.699Z,17.3
2022-11-25T09:35:25.910Z,17.9
2022-11-25T09:39:28.735Z,21.8
2022-11-25T09:41:51.958Z,16.7
2022-11-25T09:43:49.475Z,16.1
2022-11-25T09:45:37.665Z,15.9
2022-11-25T09:47:35.230Z,17.3
2022-11-25T09:49:35.166Z,12.3
2022-11-25T09:55:24.157Z,15.1
2022-11-25T09:57:27.948Z,14.1
2022-11-25T09:59:27.613Z,10.7
2022-11-25T10:01:23.982Z,12.0
2022-11-25T10:03:32.669Z,15.0
2022-11-25T10:05:25.358Z,13.0
2022-11-25T10:07:27.805Z,9.2
2022-11-25T10:09:23.865Z,13.7
2022-11-25T10:11:28.646Z,12.5
2022-11-25T10:13:24.631Z,9.0
2022-11-25T10:15:25.423Z,11.2
2022-11-25T10:19:29.762Z,12.1
2022-11-25T10:21:17.171Z,9.0
2022-11-25T10:25:19.216Z,10.4
2022-11-25T10:27:21.290Z,7.7
2022-11-25T10:29:24.139Z,8.2
2022-11-25T10:31:17.921Z,10.4
2022-11-25T10:33:20.278Z,9.7
2022-11-25T10:35:22.988Z,8.3
2022-11-25T10:37:22.493Z,7.6
2022-11-25T10:39:19.402Z,9.0
2022-11-25T10:41:16.808Z,8.5
2022-11-25T10:43:14.078Z,6.4
2022-11-25T10:45:13.022Z,7.9
2022-11-25T10:47:30.663Z,6.6
2022-11-25T10:49:16.717Z,6.8
2022-11-25T10:51:28.009Z,4.9
2022-11-25T10:55:13.979Z,4.9
2022-11-25T10:57:17.811Z,6.4
2022-11-25T10:59:23.459Z,8.7
2022-11-25T11:01:16.314Z,7.2
2022-11-25T11:03:14.620Z,6.2
2022-11-25T11:05:19.940Z,5.2
2022-11-25T11:07:09.344Z,3.5
2022-11-25T11:09:28.701Z,4.8
2022-11-25T11:11:14.756Z,3.5
2022-11-25T11:13:21.495Z,6.2
2022-11-25T11:15:17.369Z,4.1
2022-11-25T11:19:21.663Z,4.9
2022-11-25T11:21:21.866Z,4.7
2022-11-25T11:25:18.008Z,6.0
2022-11-25T11:27:15.563Z,5.4
2022-11-25T11:29:14.347Z,5.9
2022-11-25T11:31:15.187Z,5.8
2022-11-25T11:33:18.894Z,8.3
2022-11-25T11:37:21.124Z,7.4
2022-11-25T11:39:19.838Z,8.3
2022-11-25T11:41:15.006Z,7.7
2022-11-25T11:43:22.114Z,8.7
2022-11-25T11:45:15.179Z,7.3
2022-11-25T11:47:12.841Z,9.2
2022-11-25T11:49:27.618Z,9.4
2022-11-25T11:51:18.131Z,7.8
2022-11-25T11:53:09.700Z,8.5
2022-11-25T11:57:05.679Z,6.7
2022-11-25T11:59:20.818Z,7.2
2022-11-25T12:01:14.939Z,7.3
2022-11-25T12:03:09.041Z,9.1
2022-11-25T12:05:05.206Z,13.2
2022-11-25T12:07:05.716Z,8.7
2022-11-25T12:13:12.352Z,9.0
2022-11-25T12:15:08.080Z,9.2
2022-11-25T12:17:03.888Z,9.5
2022-11-25T12:19:08.444Z,9.1
2022-11-25T12:21:01.720Z,9.4
2022-11-25T12:25:05.431Z,8.7
2022-11-25T12:27:01.416Z,9.8
2022-11-25T12:29:01.747Z,8.0
2022-11-25T12:33:05.228Z,10.8
2022-11-25T12:37:04.626Z,8.2
2022-11-25T12:41:03.930Z,11.7
2022-11-25T12:43:05.894Z,11.4
2022-11-25T12:46:56.865Z,14.8
2022-11-25T12:48:57.392Z,7.5
2022-11-25T12:51:04.373Z,11.3
2022-11-25T12:53:03.948Z,10.3
2022-11-25T12:55:09.640Z,10.8
2022-11-25T12:57:13.208Z,9.8
2022-11-25T12:59:01.734Z,9.8
2022-11-25T13:01:12.463Z,11.3
2022-11-25T13:03:14.068Z,11.6
2022-11-25T13:05:39.021Z,13.4
2022-11-25T13:07:09.687Z,9.8
2022-11-25T13:08:59.165Z,12.2
2022-11-25T13:11:07.365Z,12.6
2022-11-25T13:13:04.769Z,12.0
2022-11-25T13:15:10.767Z,13.1
2022-11-25T13:16:53.227Z,16.9
2022-11-25T13:18:50.632Z,12.4
2022-11-25T13:20:51.705Z,12.3
2022-11-25T13:23:01.429Z,15.3
2022-11-25T13:24:50.095Z,12.3
2022-11-25T13:26:49.669Z,13.3
2022-11-25T13:28:50.678Z,15.4
2022-11-25T13:30:50.696Z,12.9
2022-11-25T13:34:48.022Z,18.6
2022-11-25T13:36:49.648Z,14.0
2022-11-25T13:38:59.297Z,13.8
2022-11-25T13:40:56.125Z,18.2
2022-11-25T13:42:47.126Z,12.0
2022-11-25T13:44:51.299Z,11.8
2022-11-25T13:46:48.896Z,13.8
2022-11-25T13:51:10.204Z,14.8
2022-11-25T13:52:48.555Z,14.1
2022-11-25T13:54:49.785Z,15.8
2022-11-25T13:57:00.153Z,15.7
2022-11-25T13:59:04.835Z,12.1
2022-11-25T14:01:01.404Z,15.3
2022-11-25T14:02:45.977Z,15.0
2022-11-25T14:04:54.768Z,15.3
2022-11-25T14:06:56.371Z,11.0
2022-11-25T14:08:53.451Z,17.0
2022-11-25T14:10:49.732Z,13.4
2022-11-25T14:12:55.071Z,15.4
2022-11-25T14:14:59.717Z,13.5
2022-11-25T14:16:58.101Z,13.7
2022-11-25T14:19:27.974Z,15.8
2022-11-25T14:20:47.264Z,15.4
2022-11-25T14:23:01.329Z,14.7
2022-11-25T14:24:43.042Z,11.9
2022-11-25T14:26:49.841Z,20.3
2022-11-25T14:28:46.524Z,20.0
2022-11-25T14:30:50.215Z,14.8
2022-11-25T14:32:47.901Z,14.6
2022-11-25T14:34:43.168Z,21.0
2022-11-25T14:36:44.009Z,15.3
2022-11-25T14:40:44.442Z,13.4
2022-11-25T14:46:51.261Z,17.1
2022-11-25T14:48:38.172Z,18.4
2022-11-25T14:50:39.570Z,17.7
2022-11-25T14:54:40.983Z,15.4
2022-11-25T14:56:37.963Z,16.1
2022-11-25T14:58:40.599Z,16.0
2022-11-25T15:00:49.334Z,14.2
2022-11-25T15:02:41.394Z,20.6
2022-11-25T15:04:40.973Z,14.4
2022-11-25T15:06:37.917Z,20.0
2022-11-25T15:08:39.169Z,21.6
2022-11-25T15:10:41.510Z,18.0
2022-11-25T15:12:34.792Z,13.8
2022-11-25T15:14:37.910Z,13.8
2022-11-25T15:16:38.103Z,14.5
2022-11-25T15:20:34.779Z,17.0
2022-11-25T15:22:33.704Z,19.1
2022-11-25T15:24:42.083Z,19.7
2022-11-25T15:26:35.525Z,24.7
2022-11-25T15:28:33.776Z,16.5
2022-11-25T15:30:33.241Z,17.3
2022-11-25T15:32:36.581Z,20.4
2022-11-25T15:34:31.992Z,19.4
2022-11-25T15:36:32.112Z,17.0
2022-11-25T15:38:37.048Z,17.0
2022-11-25T15:40:35.438Z,17.5
2022-11-25T15:42:32.760Z,21.5
2022-11-25T15:44:35.079Z,19.5
2022-11-25T15:48:34.639Z,18.4
2022-11-25T15:50:31.633Z,18.6
2022-11-25T15:52:32.845Z,20.0
2022-11-25T15:54:32.436Z,19.5
2022-11-25T15:56:32.087Z,22.7
2022-11-25T15:58:28.866Z,19.1
2022-11-25T16:00:28.458Z,20.7
2022-11-25T16:02:32.819Z,17.1
2022-11-25T16:04:28.019Z,21.9
2022-11-25T16:06:28.379Z,18.2
2022-11-25T16:10:30.619Z,16.9
2022-11-25T16:12:26.534Z,21.1
2022-11-25T16:14:28.244Z,16.1
2022-11-25T16:16:28.325Z,18.6
2022-11-25T16:20:25.351Z,19.2
2022-11-25T16:22:25.524Z,14.7
2022-11-25T16:24:31.758Z,19.7
2022-11-25T16:28:24.405Z,17.1
2022-11-25T16:30:25.157Z,18.5
2022-11-25T16:32:26.657Z,17.6
2022-11-25T16:34:24.678Z,21.0
2022-11-25T16:36:23.438Z,17.8
2022-11-25T16:38:22.869Z,19.3
2022-11-25T16:40:22.447Z,18.2
2022-11-25T16:42:22.078Z,17.0
2022-11-25T16:44:25.192Z,17.6
2022-11-25T16:46:21.611Z,18.7
2022-11-25T16:48:23.147Z,15.4
2022-11-25T16:50:21.626Z,19.5
2022-11-25T16:52:20.924Z,20.4
2022-11-25T16:54:21.696Z,19.8
2022-11-25T16:56:24.216Z,20.9
2022-11-25T16:58:23.235Z,19.2
2022-11-25T17:00:19.620Z,22.7
2022-11-25T17:02:21.379Z,21.5
2022-11-25T17:06:22.398Z,23.2
2022-11-25T17:08:18.183Z,16.9
2022-11-25T17:10:19.478Z,21.2
2022-11-25T17:14:23.026Z,22.6
2022-11-25T17:16:19.107Z,24.5
2022-11-25T17:18:18.284Z,19.8
2022-11-25T17:20:18.067Z,17.7
2022-11-25T17:22:19.651Z,22.0
2022-11-25T17:26:19.268Z,18.4
2022-11-25T17:28:18.466Z,20.2
2022-11-25T17:30:17.636Z,20.6
2022-11-25T17:32:15.393Z,22.0
2022-11-25T17:38:16.861Z,17.1
2022-11-25T17:40:13.832Z,21.7
2022-11-25T17:42:13.993Z,17.6
2022-11-25T17:44:21.524Z,19.5
2022-11-25T17:46:14.428Z,24.1
2022-11-25T17:48:14.743Z,24.7
2022-11-25T17:50:16.797Z,20.6
2022-11-25T17:52:11.411Z,24.9
2022-11-25T17:54:10.875Z,19.1
2022-11-25T17:56:22.101Z,22.1
2022-11-25T17:58:13.785Z,22.4
2022-11-25T18:00:14.923Z,21.0
2022-11-25T18:02:16.589Z,25.1
2022-11-25T18:04:16.369Z,22.1
2022-11-25T18:08:08.318Z,23.5
2022-11-25T18:10:09.144Z,21.2
2022-11-25T18:12:12.366Z,23.9
2022-11-25T18:14:12.241Z,27.0
2022-11-25T18:16:07.731Z,18.6
2022-11-25T18:18:19.720Z,21.1
2022-11-25T18:20:16.147Z,21.5
2022-11-25T18:22:12.772Z,25.5
2022-11-25T18:24:06.174Z,26.3
2022-11-25T18:26:05.807Z,23.9
2022-11-25T18:28:05.972Z,23.2
2022-11-25T18:32:04.417Z,21.1
2022-11-25T18:34:11.635Z,24.0
2022-11-25T18:36:04.342Z,23.7
2022-11-25T18:38:03.398Z,20.9
2022-11-25T18:40:03.261Z,19.8
2022-11-25T18:42:05.426Z,20.0
2022-11-25T18:44:05.579Z,24.7
2022-11-25T18:46:02.301Z,21.5
2022-11-25T18:48:08.928Z,23.6
2022-11-25T18:50:01.325Z,24.1
2022-11-25T18:52:01.194Z,24.1
2022-11-25T18:54:01.318Z,23.8
2022-11-25T18:56:00.531Z,26.7
2022-11-25T18:58:01.721Z,22.7
2022-11-25T19:00:24.871Z,22.5
2022-11-25T19:01:59.250Z,21.8
2022-11-25T19:03:59.249Z,25.8
2022-11-25T19:06:00.737Z,20.0
2022-11-25T19:07:58.534Z,23.6
2022-11-25T19:09:57.705Z,19.3
2022-11-25T19:11:57.385Z,32.2
2022-11-25T19:14:02.070Z,24.9
2022-11-25T19:16:04.871Z,25.7
2022-11-25T19:17:59.912Z,24.4
2022-11-25T19:19:56.361Z,26.0
2022-11-25T19:21:56.157Z,23.0
2022-11-25T19:23:55.816Z,27.3
2022-11-25T19:25:59.501Z,24.4
2022-11-25T19:29:54.464Z,28.0
2022-11-25T19:31:56.553Z,27.5
2022-11-25T19:33:53.551Z,28.0
2022-11-25T19:35:53.203Z,31.2
2022-11-25T19:37:52.958Z,23.5
2022-11-25T19:41:53.548Z,29.8
2022-11-25T19:43:51.895Z,21.7
2022-11-25T19:45:52.675Z,23.4
2022-11-25T19:47:51.722Z,26.0
2022-11-25T19:49:53.527Z,26.2
2022-11-25T19:51:50.395Z,26.5
2022-11-25T19:53:51.662Z,22.5
2022-11-25T19:55:49.519Z,29.0
2022-11-25T19:57:49.661Z,27.8
2022-11-25T19:59:49.352Z,28.3
2022-11-25T20:01:48.555Z,28.1
2022-11-25T20:03:50.373Z,31.0
2022-11-25T20:05:49.328Z,28.7
2022-11-25T20:07:47.842Z,29.8
2022-11-25T20:09:47.702Z,27.7
2022-11-25T20:11:47.127Z,31.1
2022-11-25T20:13:47.093Z,25.7
2022-11-25T20:15:46.162Z,27.2
2022-11-25T20:17:47.904Z,31.4
2022-11-25T20:19:45.271Z,27.9
2022-11-25T20:21:45.664Z,28.6
2022-11-25T20:23:46.172Z,27.9
2022-11-25T20:25:46.356Z,29.1
2022-11-25T20:27:43.837Z,29.3
2022-11-25T20:29:43.281Z,24.2
2022-11-25T20:31:42.994Z,29.5
2022-11-25T20:33:42.596Z,31.3
2022-11-25T20:37:52.811Z,26.6
2022-11-25T20:39:43.150Z,31.7
2022-11-25T20:41:41.073Z,29.0
2022-11-25T20:43:42.611Z,27.5
2022-11-25T20:45:40.355Z,29.0
2022-11-25T20:47:40.063Z,34.9
2022-11-25T20:49:39.699Z,26.3
2022-11-25T20:51:40.326Z,28.5
2022-11-25T20:53:43.970Z,26.7
2022-11-25T20:55:38.804Z,28.7
2022-11-25T20:57:38.205Z,24.6
2022-11-25T20:59:38.154Z,26.8
2022-11-25T21:01:38.009Z,24.6
2022-11-25T21:03:37.197Z,28.9
2022-11-25T21:05:36.559Z,27.0
2022-11-25T21:07:36.498Z,31.0
2022-11-25T21:09:36.108Z,32.4
2022-11-25T21:13:35.423Z,27.2
2022-11-25T21:17:34.499Z,31.3
2022-11-25T21:19:34.089Z,31.1
2022-11-25T21:23:36.534Z,29.1
2022-11-25T21:25:34.167Z,32.5
2022-11-25T21:27:33.403Z,30.3
2022-11-25T21:31:31.909Z,32.7
2022-11-25T21:33:31.661Z,34.9
2022-11-25T21:35:34.049Z,34.2
2022-11-25T21:37:34.738Z,30.7
2022-11-25T21:39:33.284Z,32.2
2022-11-25T21:41:29.928Z,26.6
2022-11-25T21:43:32.589Z,33.7
2022-11-25T21:45:29.138Z,28.3
2022-11-25T21:47:29.623Z,26.6
2022-11-25T21:49:28.766Z,28.3
2022-11-25T21:51:28.494Z,26.0
2022-11-25T21:53:27.734Z,30.6
2022-11-25T21:55:27.307Z,27.2
2022-11-25T21:57:28.775Z,31.3
2022-11-25T21:59:29.400Z,26.8
2022-11-25T22:01:26.891Z,31.1
2022-11-25T22:03:29.066Z,30.2
2022-11-25T22:05:25.472Z,28.0
2022-11-25T22:07:29.201Z,31.0
2022-11-25T22:09:25.772Z,35.7
2022-11-25T22:11:29.592Z,30.6
2022-11-25T22:13:33.297Z,37.1
2022-11-25T22:15:24.202Z,33.0
2022-11-25T22:17:24.086Z,30.7
2022-11-25T22:21:22.824Z,30.1
2022-11-25T22:23:22.245Z,31.0
2022-11-25T22:25:24.788Z,29.5
2022-11-25T22:27:24.307Z,44.1
2022-11-25T22:29:23.495Z,28.6
2022-11-25T22:31:22.403Z,28.3
2022-11-25T22:33:29.201Z,27.4
2022-11-25T22:35:20.582Z,27.6
2022-11-25T22:37:22.597Z,29.9
2022-11-25T22:39:20.692Z,35.3
2022-11-25T22:41:19.547Z,31.6
2022-11-25T22:45:25.937Z,34.7
2022-11-25T22:47:26.031Z,29.4
2022-11-25T22:49:28.200Z,28.4
2022-11-25T22:51:20.448Z,34.3
2022-11-25T22:53:18.722Z,32.7
2022-11-25T22:55:19.999Z,29.8
2022-11-25T22:57:15.841Z,25.7
2022-11-25T22:59:15.510Z,30.2
2022-11-25T23:01:16.267Z,27.3
2022-11-25T23:03:17.928Z,29.5
2022-11-25T23:05:17.574Z,26.2
2022-11-25T23:07:13.790Z,33.4
2022-11-25T23:09:17.006Z,31.6
2022-11-25T23:11:16.597Z,27.9
2022-11-25T23:13:13.563Z,29.5
2022-11-25T23:17:17.789Z,28.7
2022-11-25T23:19:14.482Z,32.4
2022-11-25T23:21:16.208Z,31.2
2022-11-25T23:23:13.927Z,28.6
2022-11-25T23:25:13.396Z,31.8
2022-11-25T23:27:10.858Z,31.9
2022-11-25T23:29:09.523Z,30.6
2022-11-25T23:31:11.943Z,27.2
2022-11-25T23:33:17.847Z,32.2
2022-11-25T23:35:14.037Z,35.8
2022-11-25T23:37:11.545Z,29.4
2022-11-25T23:39:16.324Z,34.5
2022-11-25T23:41:12.433Z,34.6
2022-11-25T23:45:09.028Z,26.6
2022-11-25T23:47:14.912Z,27.0
2022-11-25T23:49:11.521Z,33.4
2022-11-25T23:53:07.245Z,30.7
2022-11-25T23:55:04.958Z,32.9
2022-11-25T23:57:12.473Z,29.7
2022-11-25T23:59:11.397Z,28.6
